Time;durP1;ratioP1;P1;durP2;ratioP2;P2;SDS_P1;SDS_P2;PMS_P1;PMS_P2;Temp;Humidity;BMP_temperature;BMP_pressure;BME280_temperature;BME280_humidity;BME280_pressure;Samples;Min_cycle;Max_cycle;Signal;HPM_P1;HPM_P2
2023/06/01 00:02:13;;;;;;;12.88;4.80;;;12.00;99.90;;;;;;5053637;28;20055;-67
2023/06/01 00:04:40;;;;;;;11.88;5.68;;;12.00;99.90;;;;;;5053391;28;20107;-66
2023/06/01 00:07:10;;;;;;;16.42;5.30;;;12.00;99.90;;;;;;5054390;28;20048;-67
2023/06/01 00:09:36;;;;;;;14.25;5.80;;;12.00;99.90;;;;;;5053391;28;20045;-67
2023/06/01 00:12:02;;;;;;;12.60;6.18;;;12.00;99.90;;;;;;5054068;28;20033;-66
2023/06/01 00:14:28;;;;;;;11.23;4.50;;;12.00;99.90;;;;;;5053681;28;20498;-67
2023/06/01 00:16:55;;;;;;;13.77;5.40;;;11.90;99.90;;;;;;5052997;28;20074;-67
2023/06/01 00:19:21;;;;;;;18.33;5.75;;;11.90;99.90;;;;;;5053671;28;20101;-67
2023/06/01 00:21:47;;;;;;;12.05;5.45;;;11.90;99.90;;;;;;5054095;28;20483;-67
2023/06/01 00:24:12;;;;;;;16.38;5.88;;;11.90;99.90;;;;;;5053659;28;20033;-67
2023/06/01 00:26:38;;;;;;;13.23;5.32;;;12.00;99.90;;;;;;5054074;28;20398;-67
2023/06/01 00:29:03;;;;;;;13.10;5.28;;;11.90;99.90;;;;;;5053706;28;20075;-67
2023/06/01 00:31:29;;;;;;;11.23;5.45;;;11.90;99.90;;;;;;5053725;28;20045;-67
2023/06/01 00:33:55;;;;;;;12.68;5.88;;;11.90;99.90;;;;;;5052059;28;20481;-67
2023/06/01 00:36:20;;;;;;;13.88;5.28;;;11.90;99.90;;;;;;5053833;28;20040;-67
2023/06/01 00:38:46;;;;;;;12.45;5.32;;;11.90;99.90;;;;;;5053710;28;20094;-66
2023/06/01 00:41:12;;;;;;;14.60;5.32;;;11.80;99.90;;;;;;5053627;28;20033;-66
2023/06/01 00:43:37;;;;;;;11.80;5.07;;;11.80;99.90;;;;;;5053183;28;20091;-66
2023/06/01 00:46:03;;;;;;;13.40;5.57;;;11.80;99.90;;;;;;5053364;28;20048;-66
2023/06/01 00:48:29;;;;;;;14.52;4.82;;;11.70;99.90;;;;;;5053172;28;20037;-66
2023/06/01 00:50:56;;;;;;;15.85;5.00;;;11.80;99.90;;;;;;5053351;28;20095;-67
2023/06/01 00:53:22;;;;;;;13.57;5.45;;;11.70;99.90;;;;;;5052013;28;20484;-66
2023/06/01 00:55:48;;;;;;;14.82;5.25;;;11.70;99.90;;;;;;5053351;28;20129;-67
2023/06/01 00:58:14;;;;;;;16.33;6.03;;;11.70;99.90;;;;;;5053208;28;20029;-66
2023/06/01 01:00:41;;;;;;;13.77;5.15;;;11.70;99.90;;;;;;5052106;28;20120;-66
2023/06/01 01:03:07;;;;;;;13.70;5.90;;;11.70;99.90;;;;;;5052963;28;20131;-67
2023/06/01 01:05:34;;;;;;;12.95;6.10;;;11.70;99.90;;;;;;5052819;28;20045;-67
2023/06/01 01:08:27;;;;;;;10.00;5.40;;;11.70;99.90;;;;;;5052752;28;20037;-66
2023/06/01 01:11:11;;;;;;;11.52;4.72;;;11.80;99.90;;;;;;5052694;28;20056;-66
2023/06/01 01:13:43;;;;;;;11.18;5.00;;;11.80;99.90;;;;;;5052119;28;20041;-67
2023/06/01 01:16:29;;;;;;;15.75;5.60;;;11.70;99.90;;;;;;5052894;28;20044;-66
2023/06/01 01:19:17;;;;;;;16.75;6.50;;;11.70;99.90;;;;;;5052279;28;20057;-67
2023/06/01 01:21:55;;;;;;;15.60;7.43;;;11.80;99.90;;;;;;5052669;28;20733;-66
2023/06/01 01:24:51;;;;;;;18.23;7.00;;;11.80;99.90;;;;;;5051971;28;20498;-66
2023/06/01 01:27:48;;;;;;;18.00;7.65;;;11.80;99.90;;;;;;5052733;28;20048;-66
2023/06/01 01:30:15;;;;;;;13.95;6.82;;;11.80;99.90;;;;;;5037877;28;20131;-66
2023/06/01 01:32:42;;;;;;;13.93;6.28;;;11.70;99.90;;;;;;5052155;28;20045;-66
2023/06/01 01:35:08;;;;;;;19.27;6.82;;;11.70;99.90;;;;;;5052117;28;20120;-66
2023/06/01 01:37:34;;;;;;;12.10;7.07;;;11.70;99.90;;;;;;5052646;28;20052;-66
2023/06/01 01:40:00;;;;;;;14.43;6.50;;;11.70;99.90;;;;;;5052022;28;20046;-66
2023/06/01 01:42:27;;;;;;;12.23;5.72;;;11.70;99.90;;;;;;5052281;28;20048;-67
2023/06/01 01:44:53;;;;;;;11.45;5.70;;;11.70;99.90;;;;;;5052226;28;20040;-66
2023/06/01 01:47:23;;;;;;;15.10;5.97;;;11.60;99.90;;;;;;5052465;28;20041;-66
2023/06/01 01:49:59;;;;;;;15.32;6.68;;;11.60;99.90;;;;;;5052288;28;20090;-66
2023/06/01 01:52:38;;;;;;;19.25;6.05;;;11.60;99.90;;;;;;5052317;28;20438;-66
2023/06/01 01:55:06;;;;;;;19.98;6.60;;;11.60;99.90;;;;;;5051718;28;20091;-67
2023/06/01 01:57:34;;;;;;;12.80;5.55;;;11.60;99.90;;;;;;5051688;28;20072;-67
2023/06/01 02:00:00;;;;;;;15.50;6.75;;;11.60;99.90;;;;;;5051922;28;20043;-67
2023/06/01 02:02:26;;;;;;;11.10;5.00;;;11.60;99.90;;;;;;5048374;28;20033;-66
2023/06/01 02:04:52;;;;;;;15.07;6.50;;;11.50;99.90;;;;;;5051400;28;20036;-67
2023/06/01 02:07:17;;;;;;;16.63;6.47;;;11.50;99.90;;;;;;5048719;28;20535;-66
2023/06/01 02:09:43;;;;;;;17.27;6.68;;;11.50;99.90;;;;;;5049109;28;20035;-67
2023/06/01 02:12:09;;;;;;;14.55;6.53;;;11.50;99.90;;;;;;5051300;28;20091;-66
2023/06/01 02:14:35;;;;;;;13.85;6.60;;;11.50;99.90;;;;;;5051501;28;20037;-67
2023/06/01 02:17:00;;;;;;;13.90;6.63;;;11.50;99.90;;;;;;5051639;28;20051;-67
2023/06/01 02:19:26;;;;;;;14.10;6.35;;;11.50;99.90;;;;;;5051779;28;20076;-66
2023/06/01 02:21:52;;;;;;;18.73;6.55;;;11.50;99.90;;;;;;5051787;28;20041;-67
2023/06/01 02:24:18;;;;;;;12.63;6.07;;;11.50;99.90;;;;;;5050863;28;20071;-67
2023/06/01 02:26:45;;;;;;;13.93;6.30;;;11.50;99.90;;;;;;5050073;28;20051;-66
2023/06/01 02:29:12;;;;;;;14.50;6.30;;;11.50;99.90;;;;;;5051877;28;20044;-66
2023/06/01 02:31:38;;;;;;;13.63;5.93;;;11.50;99.90;;;;;;5051825;28;20116;-66
2023/06/01 02:34:04;;;;;;;12.57;5.57;;;11.50;99.90;;;;;;5092093;22;20138;-65
2023/06/01 02:36:31;;;;;;;16.95;6.40;;;11.50;99.90;;;;;;5105882;28;20122;-66
2023/06/01 02:38:57;;;;;;;15.95;6.60;;;11.50;99.90;;;;;;5109284;28;20074;-66
2023/06/01 02:41:23;;;;;;;13.63;6.07;;;11.50;99.90;;;;;;5112100;28;20055;-66
2023/06/01 02:43:52;;;;;;;16.80;6.30;;;11.50;99.90;;;;;;5110632;28;20564;-66
2023/06/01 02:46:18;;;;;;;15.27;5.72;;;11.50;99.90;;;;;;5110894;28;20112;-66
2023/06/01 02:48:44;;;;;;;17.02;6.55;;;11.50;99.90;;;;;;5110763;28;20573;-66
2023/06/01 02:51:10;;;;;;;14.90;6.20;;;11.40;99.90;;;;;;5112120;28;20468;-66
2023/06/01 02:53:36;;;;;;;15.07;6.70;;;11.50;99.90;;;;;;5111731;28;20055;-66
2023/06/01 02:56:01;;;;;;;12.55;6.10;;;11.40;99.90;;;;;;5111377;28;20040;-66
2023/06/01 02:58:29;;;;;;;16.52;6.25;;;11.40;99.90;;;;;;5112031;28;20044;-66
2023/06/01 03:00:57;;;;;;;15.48;6.65;;;11.40;99.90;;;;;;5111735;28;20408;-66
2023/06/01 03:03:26;;;;;;;15.63;5.90;;;11.40;99.90;;;;;;5110759;28;20119;-66
2023/06/01 03:05:52;;;;;;;15.93;6.80;;;11.40;99.90;;;;;;5111044;28;20050;-66
2023/06/01 03:08:18;;;;;;;17.25;6.22;;;11.30;99.90;;;;;;5112217;28;20129;-66
2023/06/01 03:10:44;;;;;;;13.13;6.35;;;11.30;99.90;;;;;;5111995;28;20249;-66
2023/06/01 03:13:10;;;;;;;15.43;6.60;;;11.30;99.90;;;;;;5110115;28;20039;-66
2023/06/01 03:15:37;;;;;;;13.02;6.28;;;11.30;99.90;;;;;;5097806;28;20123;-66
2023/06/01 03:18:03;;;;;;;11.57;5.60;;;11.30;99.90;;;;;;5091269;28;20079;-66
2023/06/01 03:20:29;;;;;;;14.48;6.30;;;11.30;99.90;;;;;;5090911;28;20036;-66
2023/06/01 03:22:54;;;;;;;19.45;6.43;;;11.30;99.90;;;;;;5091039;28;20105;-66
2023/06/01 03:25:20;;;;;;;18.27;6.75;;;11.30;99.90;;;;;;5089901;28;20036;-66
2023/06/01 03:27:46;;;;;;;13.07;5.93;;;11.30;99.90;;;;;;5091586;28;20040;-66
2023/06/01 03:30:11;;;;;;;15.57;6.10;;;11.30;99.90;;;;;;5090780;28;20040;-66
2023/06/01 03:32:44;;;;;;;13.88;5.57;;;11.30;99.90;;;;;;5090946;28;20393;-66
2023/06/01 03:35:13;;;;;;;14.48;6.43;;;11.30;99.90;;;;;;5091435;28;20408;-66
2023/06/01 03:37:41;;;;;;;15.00;5.88;;;11.30;99.90;;;;;;5094717;28;20096;-67
2023/06/01 03:40:11;;;;;;;18.20;6.80;;;11.30;99.90;;;;;;5095070;28;20036;-66
2023/06/01 03:42:40;;;;;;;15.00;6.80;;;11.30;99.90;;;;;;5093601;28;20051;-66
2023/06/01 03:45:07;;;;;;;14.45;6.32;;;11.30;99.90;;;;;;5094663;28;20043;-66
2023/06/01 03:47:33;;;;;;;9.95;5.50;;;11.30;99.90;;;;;;5092911;28;20102;-66
2023/06/01 03:50:01;;;;;;;15.52;5.95;;;11.40;99.90;;;;;;5094883;28;20040;-66
2023/06/01 03:52:27;;;;;;;15.48;6.40;;;11.30;99.90;;;;;;5094760;28;20120;-66
2023/06/01 03:54:53;;;;;;;14.75;5.88;;;11.40;99.90;;;;;;5094117;28;20040;-66
2023/06/01 03:57:19;;;;;;;14.32;5.85;;;11.40;99.90;;;;;;5094334;28;20035;-66
2023/06/01 03:59:45;;;;;;;14.02;6.10;;;11.40;99.90;;;;;;5093257;28;20040;-66
2023/06/01 04:02:11;;;;;;;14.52;5.90;;;11.40;99.90;;;;;;5082867;28;20397;-66
2023/06/01 04:04:36;;;;;;;14.90;5.82;;;11.40;99.90;;;;;;5090095;28;20040;-66
2023/06/01 04:07:03;;;;;;;13.90;5.93;;;11.40;99.90;;;;;;5091218;28;20071;-66
2023/06/01 04:09:32;;;;;;;15.82;5.68;;;11.30;99.90;;;;;;5093873;28;20047;-66
2023/06/01 04:11:58;;;;;;;12.27;5.70;;;11.30;99.90;;;;;;5093737;28;20067;-65
2023/06/01 04:14:23;;;;;;;12.27;5.60;;;11.30;99.90;;;;;;5093354;28;20101;-66
2023/06/01 04:16:49;;;;;;;11.68;6.45;;;11.30;99.90;;;;;;5094045;28;20046;-66
2023/06/01 04:19:15;;;;;;;12.63;5.95;;;11.30;99.90;;;;;;5094343;28;20032;-65
2023/06/01 04:21:41;;;;;;;15.73;6.25;;;11.30;99.90;;;;;;5093074;28;20039;-66
2023/06/01 04:24:06;;;;;;;13.55;6.10;;;11.30;99.90;;;;;;5093805;28;20036;-66
2023/06/01 04:26:32;;;;;;;15.95;7.18;;;11.40;99.90;;;;;;5092857;28;20036;-66
2023/06/01 04:28:58;;;;;;;16.17;6.88;;;11.40;99.90;;;;;;5094083;28;20028;-66
2023/06/01 04:31:24;;;;;;;13.18;6.07;;;11.40;99.90;;;;;;5093737;28;20397;-66
2023/06/01 04:33:53;;;;;;;16.00;6.13;;;11.40;99.90;;;;;;5093700;28;20040;-66
2023/06/01 04:36:22;;;;;;;11.48;6.20;;;11.50;99.90;;;;;;5093978;28;20075;-66
2023/06/01 04:38:54;;;;;;;13.02;5.75;;;11.50;99.90;;;;;;5093959;28;20039;-66
2023/06/01 04:41:28;;;;;;;;;;;11.50;99.90;;;;;;5092917;28;20631;-66
2023/06/01 04:43:54;;;;;;;10.20;5.55;;;11.40;99.90;;;;;;5092966;28;20002;-66
2023/06/01 04:46:23;;;;;;;11.38;5.45;;;11.40;99.90;;;;;;5091948;28;20177;-66
2023/06/01 04:48:49;;;;;;;15.90;6.05;;;11.50;99.90;;;;;;5092593;28;20482;-66
2023/06/01 04:51:19;;;;;;;10.88;5.30;;;11.40;99.90;;;;;;5093594;28;20032;-66
2023/06/01 04:53:51;;;;;;;13.85;5.68;;;11.40;99.90;;;;;;5093395;28;20483;-66
2023/06/01 04:56:29;;;;;;;8.00;4.50;;;11.50;99.90;;;;;;5093363;28;20082;-66
2023/06/01 04:58:56;;;;;;;12.98;5.30;;;11.40;99.90;;;;;;5093750;28;20123;-66
2023/06/01 05:01:25;;;;;;;10.57;5.43;;;11.40;99.90;;;;;;5092936;28;20042;-66
2023/06/01 05:03:54;;;;;;;12.23;5.03;;;11.40;99.90;;;;;;5092729;28;20039;-66
2023/06/01 05:06:21;;;;;;;12.18;5.28;;;11.50;99.90;;;;;;5093184;28;20047;-66
2023/06/01 05:08:46;;;;;;;8.15;4.30;;;11.50;99.90;;;;;;5091730;28;20394;-66
2023/06/01 05:11:12;;;;;;;12.30;4.57;;;11.50;99.90;;;;;;5091830;28;20040;-63
2023/06/01 05:13:39;;;;;;;13.60;4.75;;;11.50;99.90;;;;;;5092816;28;20029;-64
2023/06/01 05:16:06;;;;;;;13.45;4.85;;;11.50;99.90;;;;;;5091775;28;20040;-66
2023/06/01 05:18:32;;;;;;;11.48;4.13;;;11.50;99.90;;;;;;5091319;28;20051;-65
2023/06/01 05:20:58;;;;;;;10.32;5.07;;;11.50;99.90;;;;;;5092950;28;20028;-65
2023/06/01 05:23:25;;;;;;;12.48;5.05;;;11.50;99.90;;;;;;5090907;28;20560;-65
2023/06/01 05:25:51;;;;;;;11.20;5.22;;;11.50;99.90;;;;;;5091211;28;20071;-66
2023/06/01 05:28:17;;;;;;;11.80;5.15;;;11.50;99.90;;;;;;5092520;28;20040;-65
2023/06/01 05:30:43;;;;;;;9.70;4.90;;;11.40;99.90;;;;;;5092908;28;20039;-65
2023/06/01 05:33:08;;;;;;;12.45;5.18;;;11.50;99.90;;;;;;5092650;28;20040;-66
2023/06/01 05:35:34;;;;;;;15.90;5.38;;;11.50;99.90;;;;;;5091214;28;20036;-65
2023/06/01 05:38:00;;;;;;;13.10;5.43;;;11.50;99.90;;;;;;5092497;28;20038;-65
2023/06/01 05:40:25;;;;;;;14.57;6.40;;;11.50;99.90;;;;;;5091336;28;20094;-66
2023/06/01 05:42:51;;;;;;;13.23;5.82;;;11.50;99.90;;;;;;5092511;28;20105;-65
2023/06/01 05:45:17;;;;;;;13.85;5.35;;;11.50;99.90;;;;;;5091117;28;20044;-65
2023/06/01 05:47:43;;;;;;;15.88;5.47;;;11.60;99.90;;;;;;5091282;28;20044;-66
2023/06/01 05:50:09;;;;;;;16.15;5.75;;;11.60;99.90;;;;;;5092520;28;20059;-66
2023/06/01 05:52:35;;;;;;;12.98;5.82;;;11.60;99.90;;;;;;5092199;28;20036;-65
2023/06/01 05:55:00;;;;;;;19.35;6.22;;;11.60;99.90;;;;;;5090956;28;20028;-65
2023/06/01 05:57:26;;;;;;;13.88;5.82;;;11.60;99.90;;;;;;5092601;28;20032;-65
2023/06/01 05:59:53;;;;;;;14.52;5.38;;;11.60;99.90;;;;;;5090735;28;20486;-65
2023/06/01 06:02:19;;;;;;;11.18;4.60;;;11.60;99.90;;;;;;5092302;28;20040;-66
2023/06/01 06:04:45;;;;;;;9.13;4.07;;;11.60;99.90;;;;;;5092055;28;20036;-65
2023/06/01 06:07:10;;;;;;;9.07;4.20;;;11.60;99.90;;;;;;5090810;28;20083;-65
2023/06/01 06:09:36;;;;;;;6.43;3.67;;;11.50;99.90;;;;;;5092488;28;20115;-65
2023/06/01 06:12:02;;;;;;;8.70;4.05;;;11.50;99.90;;;;;;5092133;28;20036;-65
2023/06/01 06:14:28;;;;;;;6.13;4.05;;;11.50;99.90;;;;;;5090803;28;20150;-65
2023/06/01 06:16:53;;;;;;;11.15;4.70;;;11.50;99.90;;;;;;5092116;28;20040;-66
2023/06/01 06:19:19;;;;;;;10.50;4.22;;;11.50;99.90;;;;;;5092093;28;20048;-65
2023/06/01 06:21:44;;;;;;;7.88;4.28;;;11.50;99.90;;;;;;5091912;28;20119;-65
2023/06/01 06:24:10;;;;;;;12.82;4.70;;;11.50;99.90;;;;;;5091986;28;20047;-66
2023/06/01 06:26:36;;;;;;;8.43;4.68;;;11.50;99.90;;;;;;5092217;28;20095;-65
2023/06/01 06:29:01;;;;;;;8.98;4.40;;;11.50;99.90;;;;;;5091974;28;20032;-65
2023/06/01 06:31:27;;;;;;;12.57;4.97;;;11.50;99.90;;;;;;5091995;28;20166;-65
2023/06/01 06:33:52;;;;;;;9.40;4.53;;;11.50;99.90;;;;;;5091347;28;20417;-65
2023/06/01 06:36:18;;;;;;;12.15;4.28;;;11.50;99.90;;;;;;5090786;28;20048;-65
2023/06/01 06:38:44;;;;;;;11.57;4.35;;;11.50;99.90;;;;;;5092140;28;20044;-65
2023/06/01 06:41:10;;;;;;;9.43;4.47;;;11.60;99.90;;;;;;5092025;28;20590;-66
2023/06/01 06:43:36;;;;;;;7.97;3.65;;;11.60;99.90;;;;;;5091643;28;20040;-65
2023/06/01 06:46:02;;;;;;;7.22;3.45;;;11.60;99.90;;;;;;5090550;28;20050;-66
2023/06/01 06:48:28;;;;;;;6.60;3.55;;;11.70;99.90;;;;;;5091800;28;20036;-65
2023/06/01 06:50:53;;;;;;;5.38;3.47;;;11.70;99.90;;;;;;5091480;28;20043;-65
2023/06/01 06:53:19;;;;;;;5.93;3.03;;;11.80;99.90;;;;;;5091567;28;20040;-66
2023/06/01 06:55:45;;;;;;;7.32;3.30;;;11.80;99.90;;;;;;5090588;28;20119;-65
2023/06/01 06:58:11;;;;;;;9.25;2.95;;;11.80;99.90;;;;;;5091304;28;20032;-66
2023/06/01 07:00:37;;;;;;;6.53;3.55;;;11.90;99.90;;;;;;5092194;28;20067;-65
2023/06/01 07:03:03;;;;;;;9.52;3.65;;;11.90;99.90;;;;;;5091091;28;20113;-66
2023/06/01 07:05:29;;;;;;;6.68;3.00;;;12.00;99.90;;;;;;5089670;28;20135;-65
2023/06/01 07:07:55;;;;;;;8.45;3.83;;;12.00;99.90;;;;;;5091620;28;20097;-66
2023/06/01 07:10:21;;;;;;;10.38;3.90;;;12.00;99.90;;;;;;5092406;28;20032;-66
2023/06/01 07:12:46;;;;;;;10.75;3.70;;;12.00;99.90;;;;;;5095313;28;20482;-66
2023/06/01 07:15:12;;;;;;;8.90;3.83;;;12.00;99.90;;;;;;5095139;28;20043;-66
2023/06/01 07:17:38;;;;;;;7.40;3.60;;;12.00;99.90;;;;;;5094325;28;20032;-66
2023/06/01 07:20:06;;;;;;;10.18;3.97;;;12.10;99.90;;;;;;5095336;28;20530;-65
2023/06/01 07:22:32;;;;;;;10.45;4.25;;;12.00;99.90;;;;;;5093862;28;20039;-66
2023/06/01 07:24:58;;;;;;;8.30;4.15;;;12.10;99.90;;;;;;5094920;28;20044;-66
2023/06/01 07:27:24;;;;;;;9.50;4.55;;;12.20;99.90;;;;;;5095199;28;20118;-66
2023/06/01 07:29:54;;;;;;;10.50;4.18;;;12.20;99.90;;;;;;5095247;28;20047;-66
2023/06/01 07:32:21;;;;;;;9.25;3.95;;;12.20;99.90;;;;;;5095037;28;20040;-65
2023/06/01 07:34:47;;;;;;;6.05;3.53;;;12.20;99.90;;;;;;5093691;28;20071;-66
2023/06/01 07:37:12;;;;;;;8.65;3.22;;;12.30;99.90;;;;;;5095051;28;20068;-65
2023/06/01 07:39:38;;;;;;;7.28;3.58;;;12.30;99.90;;;;;;5094885;28;20043;-66
2023/06/01 07:42:04;;;;;;;8.70;3.63;;;12.30;99.90;;;;;;5094894;28;20094;-65
2023/06/01 07:44:30;;;;;;;8.00;3.72;;;12.40;99.90;;;;;;5093352;28;20136;-66
2023/06/01 07:46:55;;;;;;;5.32;3.28;;;12.40;99.90;;;;;;5094827;28;20119;-65
2023/06/01 07:49:21;;;;;;;10.23;3.90;;;12.40;99.90;;;;;;5093043;28;20048;-66
2023/06/01 07:51:47;;;;;;;6.65;4.10;;;12.40;99.90;;;;;;5094920;28;20064;-65
2023/06/01 07:54:13;;;;;;;8.15;4.10;;;12.40;99.90;;;;;;5094275;28;20040;-65
2023/06/01 07:56:39;;;;;;;7.75;4.03;;;12.40;99.90;;;;;;5094397;28;20382;-65
2023/06/01 07:59:05;;;;;;;8.15;3.67;;;12.40;99.90;;;;;;5094355;28;20054;-66
2023/06/01 08:01:30;;;;;;;10.93;4.07;;;12.50;99.90;;;;;;5093238;28;20491;-66
2023/06/01 08:03:56;;;;;;;6.50;3.88;;;12.50;99.90;;;;;;5094089;28;20063;-65
2023/06/01 08:06:23;;;;;;;8.23;3.78;;;12.50;99.90;;;;;;5094635;28;20520;-65
2023/06/01 08:08:49;;;;;;;6.97;3.45;;;12.50;99.90;;;;;;5094447;28;20061;-66
2023/06/01 08:11:15;;;;;;;3.50;2.80;;;12.60;99.90;;;;;;5094648;28;20215;-66
2023/06/01 08:13:41;;;;;;;8.25;3.15;;;12.60;99.90;;;;;;5092825;28;20385;-65
2023/06/01 08:16:07;;;;;;;9.93;3.15;;;12.60;99.90;;;;;;5094187;28;20043;-66
2023/06/01 08:18:33;;;;;;;7.88;3.05;;;12.60;99.90;;;;;;5094135;28;20044;-66
2023/06/01 08:21:01;;;;;;;6.88;2.53;;;12.70;99.90;;;;;;5094247;28;20048;-66
2023/06/01 08:23:27;;;;;;;3.70;2.25;;;12.70;99.90;;;;;;5093307;28;20121;-66
2023/06/01 08:25:53;;;;;;;5.53;2.35;;;12.70;99.90;;;;;;5094058;28;20517;-66
2023/06/01 08:28:18;;;;;;;5.35;2.25;;;12.70;99.90;;;;;;5094091;28;20032;-65
2023/06/01 08:30:44;;;;;;;4.72;2.63;;;12.80;99.90;;;;;;5093986;28;20036;-66
2023/06/01 08:33:09;;;;;;;7.03;2.50;;;12.80;99.90;;;;;;5093549;28;20044;-66
2023/06/01 08:35:35;;;;;;;5.45;2.40;;;12.90;99.90;;;;;;5093919;28;20379;-66
2023/06/01 08:38:01;;;;;;;2.92;2.10;;;12.90;99.90;;;;;;5094056;28;20032;-66
2023/06/01 08:40:27;;;;;;;3.90;2.25;;;12.90;99.90;;;;;;5093539;28;20114;-65
2023/06/01 08:43:13;;;;;;;5.35;2.65;;;13.00;99.90;;;;;;5093548;28;20040;-66
2023/06/01 08:45:40;;;;;;;6.65;2.65;;;13.00;99.90;;;;;;5093399;28;20075;-66
2023/06/01 08:48:08;;;;;;;6.25;2.58;;;13.00;99.90;;;;;;5093378;28;20032;-66
2023/06/01 08:50:34;;;;;;;5.25;2.65;;;13.10;99.90;;;;;;5093492;28;20063;-66
2023/06/01 08:53:01;;;;;;;7.63;2.85;;;13.10;99.90;;;;;;5093360;28;20075;-66
2023/06/01 08:55:26;;;;;;;7.85;3.13;;;13.10;99.90;;;;;;5093321;28;20524;-66
2023/06/01 08:57:54;;;;;;;6.25;3.13;;;13.10;99.90;;;;;;5093915;28;20036;-66
2023/06/01 09:00:20;;;;;;;8.23;2.90;;;13.10;99.90;;;;;;5093618;28;20036;-66
2023/06/01 09:02:46;;;;;;;5.47;2.75;;;13.10;99.90;;;;;;5091548;28;20268;-66
2023/06/01 09:05:12;;;;;;;4.03;2.05;;;13.20;99.90;;;;;;5092876;28;20032;-66
2023/06/01 09:07:39;;;;;;;4.53;2.20;;;13.20;99.90;;;;;;5092233;28;20046;-66
2023/06/01 09:10:05;;;;;;;5.18;2.08;;;13.20;99.90;;;;;;5092214;28;20044;-66
2023/06/01 09:12:34;;;;;;;5.93;2.10;;;13.20;99.90;;;;;;5091278;28;20489;-66
2023/06/01 09:15:17;;;;;;;5.07;2.13;;;13.30;99.90;;;;;;5092630;28;20036;-66
2023/06/01 09:17:46;;;;;;;3.40;2.33;;;13.30;99.90;;;;;;5093344;28;20036;-66
2023/06/01 09:20:21;;;;;;;6.18;2.58;;;13.30;99.90;;;;;;5092678;28;20440;-66
2023/06/01 09:22:47;;;;;;;8.18;2.42;;;13.30;99.90;;;;;;5092911;28;20067;-66
2023/06/01 09:25:14;;;;;;;5.20;2.50;;;13.30;99.90;;;;;;5092515;28;20141;-66
2023/06/01 09:27:50;;;;;;;6.45;2.50;;;13.40;99.90;;;;;;5092976;28;20052;-66
2023/06/01 09:30:18;;;;;;;3.65;2.63;;;13.40;99.90;;;;;;5092311;28;20508;-66
2023/06/01 09:32:47;;;;;;;5.82;2.95;;;13.40;99.90;;;;;;5092143;28;20526;-66
2023/06/01 09:35:13;;;;;;;5.75;2.80;;;13.40;99.90;;;;;;5092460;28;20397;-66
2023/06/01 09:37:52;;;;;;;4.75;2.50;;;13.40;99.90;;;;;;5092110;28;20036;-66
2023/06/01 09:40:19;;;;;;;8.10;2.72;;;13.40;99.90;;;;;;5092589;28;20435;-66
2023/06/01 09:42:49;;;;;;;4.55;2.72;;;13.40;99.90;;;;;;5092506;28;20493;-65
2023/06/01 09:45:18;;;;;;;4.60;2.92;;;13.40;99.90;;;;;;5092341;28;20059;-66
2023/06/01 09:47:44;;;;;;;5.93;2.63;;;13.50;99.90;;;;;;5092697;28;20474;-66
2023/06/01 09:50:11;;;;;;;4.15;2.67;;;13.50;99.90;;;;;;5091121;28;20083;-66
2023/06/01 09:52:37;;;;;;;6.75;2.72;;;13.50;99.90;;;;;;5092477;28;20071;-66
2023/06/01 09:55:08;;;;;;;5.93;2.38;;;13.50;99.90;;;;;;5092271;28;20068;-66
2023/06/01 09:57:33;;;;;;;;;;;13.60;99.90;;;;;;5093043;28;20040;-66
2023/06/01 10:00:05;;;;;;;5.72;2.75;;;13.50;99.90;;;;;;5092296;28;19920;-66
2023/06/01 10:02:33;;;;;;;5.38;2.67;;;13.60;99.90;;;;;;5092166;28;20032;-66
2023/06/01 10:04:59;;;;;;;3.45;2.38;;;13.50;99.90;;;;;;5092303;28;20036;-66
2023/06/01 10:07:31;;;;;;;3.85;2.67;;;13.60;99.90;;;;;;5092453;28;20036;-66
2023/06/01 10:09:59;;;;;;;4.25;2.58;;;13.60;99.90;;;;;;5092274;28;20043;-66
2023/06/01 10:12:28;;;;;;;4.03;2.08;;;13.60;99.90;;;;;;5091101;28;20036;-66
2023/06/01 10:14:55;;;;;;;3.47;1.92;;;13.60;99.90;;;;;;5091687;28;20036;-65
2023/06/01 10:17:21;;;;;;;4.55;2.15;;;13.60;99.90;;;;;;5092073;28;20040;-65
2023/06/01 10:19:48;;;;;;;5.18;2.00;;;13.60;99.90;;;;;;5092040;28;20552;-66
2023/06/01 10:22:13;;;;;;;3.10;2.00;;;13.60;99.90;;;;;;5092311;28;20051;-66
2023/06/01 10:24:41;;;;;;;3.85;2.22;;;13.70;99.90;;;;;;5091824;28;20040;-66
2023/06/01 10:27:15;;;;;;;1.80;1.60;;;13.80;99.90;;;;;;5091940;28;20101;-66
2023/06/01 10:29:41;;;;;;;2.30;1.95;;;13.90;99.90;;;;;;5091820;28;20043;-66
2023/06/01 10:32:54;;;;;;;2.95;2.00;;;13.90;99.90;;;;;;5092243;28;20035;-66
2023/06/01 10:35:42;;;;;;;7.07;2.65;;;14.10;99.90;;;;;;5090096;28;20574;-66
2023/06/01 10:38:12;;;;;;;6.38;2.55;;;14.10;99.90;;;;;;5085359;28;20135;-65
2023/06/01 10:40:46;;;;;;;6.87;2.90;;;14.00;99.90;;;;;;5091936;28;20047;-66
2023/06/01 10:43:47;;;;;;;6.30;3.85;;;14.00;99.90;;;;;;5091714;28;20040;-65
2023/06/01 10:46:35;;;;;;;6.95;3.78;;;13.80;99.90;;;;;;5052837;28;20045;-66
2023/06/01 10:49:02;;;;;;;6.43;3.67;;;13.70;99.90;;;;;;5093857;28;20507;-65
2023/06/01 10:51:28;;;;;;;5.80;3.28;;;13.60;99.90;;;;;;5094564;28;20427;-65
2023/06/01 10:53:54;;;;;;;6.55;3.63;;;13.50;99.90;;;;;;5095535;28;20115;-65
2023/06/01 10:56:24;;;;;;;11.43;4.28;;;13.60;99.90;;;;;;5095593;28;20378;-65
2023/06/01 10:59:08;;;;;;;5.90;4.00;;;13.60;99.90;;;;;;5095719;28;20082;-65
2023/06/01 11:01:41;;;;;;;8.07;4.40;;;13.60;99.90;;;;;;5095172;28;20047;-66
2023/06/01 11:04:08;;;;;;;10.15;4.45;;;13.60;99.90;;;;;;5095466;28;20123;-66
2023/06/01 11:06:37;;;;;;;8.65;4.25;;;13.60;99.90;;;;;;5095575;28;20036;-66
2023/06/01 11:09:08;;;;;;;10.10;4.60;;;13.70;99.90;;;;;;5094355;28;20032;-66
2023/06/01 11:11:52;;;;;;;9.98;4.53;;;13.70;99.90;;;;;;5095334;28;20032;-66
2023/06/01 11:14:22;;;;;;;12.80;4.47;;;13.80;99.90;;;;;;5093944;28;20115;-65
2023/06/01 11:16:47;;;;;;;7.45;3.72;;;13.80;99.90;;;;;;5095102;28;20061;-66
2023/06/01 11:19:24;;;;;;;10.68;4.25;;;13.90;99.90;;;;;;5095484;28;20036;-66
2023/06/01 11:22:00;;;;;;;7.38;3.90;;;13.90;99.90;;;;;;5076749;28;20076;-66
2023/06/01 11:24:33;;;;;;;14.35;4.25;;;13.90;99.90;;;;;;5094767;28;20048;-66
2023/06/01 11:27:01;;;;;;;20.90;4.50;;;13.90;99.90;;;;;;5094898;28;20048;-66
2023/06/01 11:29:26;;;;;;;9.52;3.63;;;13.90;99.90;;;;;;5095329;28;20044;-66
2023/06/01 11:31:54;;;;;;;8.13;3.50;;;13.90;99.90;;;;;;5095233;28;20397;-66
2023/06/01 11:34:34;;;;;;;8.52;3.50;;;14.00;99.90;;;;;;5093022;28;20485;-66
2023/06/01 11:37:01;;;;;;;7.93;3.40;;;14.00;99.90;;;;;;5094798;28;20074;-65
2023/06/01 11:39:28;;;;;;;7.45;3.70;;;14.20;99.90;;;;;;5094046;28;20040;-66
2023/06/01 11:42:07;;;;;;;10.85;3.58;;;14.20;99.90;;;;;;5094487;28;20097;-65
2023/06/01 11:44:34;;;;;;;7.43;3.72;;;14.20;99.90;;;;;;5094483;28;20483;-65
2023/06/01 11:47:01;;;;;;;10.27;3.80;;;14.20;99.90;;;;;;5094700;28;20115;-65
2023/06/01 11:49:27;;;;;;;7.72;4.00;;;14.10;99.90;;;;;;5094627;28;20036;-65
2023/06/01 11:51:55;;;;;;;7.85;3.50;;;14.10;99.90;;;;;;5093189;28;20036;-65
2023/06/01 11:54:26;;;;;;;10.40;4.18;;;14.20;99.90;;;;;;5094439;28;20036;-65
2023/06/01 11:56:52;;;;;;;13.45;4.07;;;14.20;99.90;;;;;;5094009;28;20514;-65
2023/06/01 11:59:18;;;;;;;9.65;3.55;;;14.30;99.90;;;;;;5092865;28;20048;-65
2023/06/01 12:01:46;;;;;;;6.75;3.30;;;14.30;99.90;;;;;;5093036;28;20153;-65
2023/06/01 12:04:24;;;;;;;9.20;3.80;;;14.30;99.90;;;;;;5094360;28;20043;-65
2023/06/01 12:06:51;;;;;;;9.85;3.85;;;14.30;99.90;;;;;;5092734;28;20405;-65
2023/06/01 12:09:17;;;;;;;10.13;3.83;;;14.20;99.90;;;;;;5093188;28;20036;-65
2023/06/01 12:11:44;;;;;;;7.07;3.30;;;14.30;99.90;;;;;;5093804;28;20036;-65
2023/06/01 12:14:11;;;;;;;10.52;3.17;;;14.30;99.90;;;;;;5094122;28;20043;-65
2023/06/01 12:16:54;;;;;;;10.13;3.53;;;14.50;99.90;;;;;;5093718;28;20085;-65
2023/06/01 12:19:21;;;;;;;7.68;3.10;;;14.60;99.90;;;;;;5094281;28;20562;-65
2023/06/01 12:21:51;;;;;;;11.60;3.63;;;14.60;99.90;;;;;;5094259;28;20089;-65
2023/06/01 12:24:30;;;;;;;7.63;3.28;;;14.60;99.90;;;;;;5093149;28;20036;-65
2023/06/01 12:26:58;;;;;;;7.78;3.80;;;14.80;99.90;;;;;;5093973;28;20085;-65
2023/06/01 12:29:47;;;;;;;6.93;3.13;;;14.70;99.90;;;;;;5092867;28;20149;-65
2023/06/01 12:32:17;;;;;;;7.93;3.70;;;14.70;99.90;;;;;;5092739;28;20505;-65
2023/06/01 12:34:47;;;;;;;7.85;3.50;;;14.70;99.90;;;;;;5093453;28;20497;-65
2023/06/01 12:37:13;;;;;;;9.13;3.40;;;14.70;99.90;;;;;;5094108;28;20039;-65
2023/06/01 12:39:39;;;;;;;9.48;3.75;;;14.80;99.90;;;;;;5092727;28;20048;-64
2023/06/01 12:42:05;;;;;;;6.05;3.22;;;14.70;99.90;;;;;;5093760;28;20154;-65
2023/06/01 12:44:34;;;;;;;8.50;4.03;;;14.70;99.90;;;;;;5092151;28;20048;-65
2023/06/01 12:47:00;;;;;;;11.82;4.20;;;14.80;99.90;;;;;;5092339;28;20055;-65